Time;durP1;ratioP1;P1;durP2;ratioP2;P2;SDS_P1;SDS_P2;PMS_P1;PMS_P2;Temp;Humidity;BMP_temperature;BMP_pressure;BME280_temperature;BME280_humidity;BME280_pressure;Samples;Min_cycle;Max_cycle;Signal;HPM_P1;HPM_P2
2022/02/05 00:02:37;;;;;;;1.00;0.35;;;;;;;;;;6209092;22;21395;-83
2022/02/05 00:05:03;;;;;;;1.15;0.30;;;;;;;;;;6182606;22;20016;-84
2022/02/05 00:07:32;;;;;;;0.60;0.47;;;;;;;;;;6208895;22;20082;-83
2022/02/05 00:10:21;;;;;;;0.88;0.40;;;;;;;;;;6182119;22;20034;-83
2022/02/05 00:13:04;;;;;;;0.75;0.30;;;;;;;;;;6213191;22;20016;-84
2022/02/05 00:15:43;;;;;;;1.58;0.40;;;;;;;;;;6186918;22;20024;-83
2022/02/05 00:40:47;;;;;;;0.68;0.60;;;;;;;;;;6212822;22;20215;-83
2022/02/05 00:42:44;;;;;;;3.25;0.50;;;;;;;;;;6200914;22;20015;-84
2022/02/05 00:45:11;;;;;;;1.00;0.70;;;;;;;;;;6208925;23;20054;-84
2022/02/05 00:47:41;;;;;;;1.38;0.63;;;;;;;;;;6183593;23;20032;-83
2022/02/05 00:50:14;;;;;;;3.17;0.70;;;;;;;;;;6184438;23;20020;-84
2022/02/05 00:52:40;;;;;;;2.05;0.70;;;;;;;;;;6209801;22;20083;-83
2022/02/05 00:55:10;;;;;;;1.25;0.82;;;;;;;;;;6209669;23;20497;-83
2022/02/05 00:57:45;;;;;;;2.20;1.00;;;;;;;;;;6185222;23;20050;-83
2022/02/05 01:00:16;;;;;;;2.80;1.10;;;;;;;;;;6178332;22;20066;-84
2022/02/05 01:02:42;;;;;;;2.78;1.00;;;;;;;;;;6182621;22;20018;-83
2022/02/05 01:05:09;;;;;;;2.63;1.05;;;;;;;;;;6184150;23;20405;-83
2022/02/05 01:07:34;;;;;;;4.70;1.40;;;;;;;;;;6182522;22;20086;-83
2022/02/05 01:10:00;;;;;;;2.45;1.13;;;;;;;;;;6206756;22;20016;-83
2022/02/05 01:12:29;;;;;;;2.90;1.30;;;;;;;;;;6181803;22;20016;-84
2022/02/05 01:14:58;;;;;;;2.97;1.42;;;;;;;;;;6183865;22;20052;-83
2022/02/05 01:17:31;;;;;;;3.58;1.33;;;;;;;;;;6183589;22;20070;-84
2022/02/05 01:20:27;;;;;;;2.83;1.58;;;;;;;;;;6184847;22;20365;-83
2022/02/05 01:22:50;;;;;;;4.70;2.00;;;;;;;;;;6212357;22;20442;-84
2022/02/05 01:25:20;;;;;;;3.42;1.50;;;;;;;;;;6183210;22;20028;-84
2022/02/05 01:27:52;;;;;;;3.67;1.90;;;;;;;;;;6209235;22;20453;-83
2022/02/05 01:30:29;;;;;;;2.83;1.58;;;;;;;;;;6183708;22;20123;-84
2022/02/05 01:36:07;;;;;;;3.08;1.67;;;;;;;;;;6235201;22;20089;-84
2022/02/05 01:52:14;;;;;;;9.20;2.60;;;;;;;;;;6209749;22;20411;-82
2022/02/05 01:55:02;;;;;;;9.68;2.13;;;;;;;;;;6210008;22;20016;-82
2022/02/05 01:57:42;;;;;;;6.05;1.75;;;;;;;;;;6212221;22;20027;-82
2022/02/05 02:05:29;;;;;;;6.03;2.05;;;;;;;;;;6210764;22;20401;-82
2022/02/05 02:13:44;;;;;;;6.55;1.90;;;;;;;;;;6212144;22;20096;-82
2022/02/05 02:16:25;;;;;;;4.50;2.65;;;;;;;;;;6213401;22;20043;-82
2022/02/05 02:21:44;;;;;;;12.68;4.65;;;;;;;;;;6212120;22;20027;-82
2022/02/05 02:24:17;;;;;;;8.55;2.30;;;;;;;;;;6185163;23;20465;-82
2022/02/05 02:27:04;;;;;;;6.25;2.35;;;;;;;;;;6206764;22;20020;-81
2022/02/05 02:29:46;;;;;;;7.10;2.40;;;;;;;;;;6186981;22;20020;-81
2022/02/05 02:32:12;;;;;;;5.55;2.33;;;;;;;;;;6208844;22;20020;-82
2022/02/05 02:34:44;;;;;;;12.10;3.97;;;;;;;;;;6182401;23;20020;-82
2022/02/05 02:37:13;;;;;;;7.47;1.98;;;;;;;;;;6184306;23;20024;-82
2022/02/05 02:42:18;;;;;;;3.72;2.00;;;;;;;;;;6208634;22;20324;-82
2022/02/05 02:44:44;;;;;;;9.02;2.03;;;;;;;;;;6182617;22;20539;-82
2022/02/05 02:47:09;;;;;;;8.85;1.75;;;;;;;;;;6207780;23;20024;-82
2022/02/05 02:49:52;;;;;;;10.05;2.60;;;;;;;;;;6183002;22;20019;-82
2022/02/05 02:57:56;;;;;;;9.90;3.00;;;;;;;;;;6212725;22;20476;-82
2022/02/05 03:00:22;;;;;;;6.20;1.70;;;;;;;;;;6183215;22;20028;-82
2022/02/05 03:02:48;;;;;;;4.53;1.48;;;;;;;;;;6181859;22;20099;-82
2022/02/05 03:05:13;;;;;;;3.58;1.70;;;;;;;;;;6181803;22;20054;-82
2022/02/05 03:07:39;;;;;;;8.88;2.17;;;;;;;;;;6182928;23;20014;-82
2022/02/05 03:10:06;;;;;;;8.50;1.65;;;;;;;;;;6205085;22;20082;-82
2022/02/05 03:12:32;;;;;;;6.85;1.67;;;;;;;;;;6206447;22;20087;-82
2022/02/05 03:14:58;;;;;;;7.00;2.30;;;;;;;;;;6206097;22;20237;-82
2022/02/05 03:17:26;;;;;;;8.13;1.70;;;;;;;;;;6182913;22;20082;-82
2022/02/05 03:19:55;;;;;;;8.15;2.25;;;;;;;;;;6182205;22;20047;-81
2022/02/05 03:22:22;;;;;;;6.18;1.77;;;;;;;;;;6181448;22;20024;-82
2022/02/05 03:24:48;;;;;;;4.75;1.50;;;;;;;;;;6180340;22;20020;-82
2022/02/05 03:27:15;;;;;;;7.43;2.30;;;;;;;;;;6181994;22;20118;-82
2022/02/05 03:29:45;;;;;;;5.90;2.38;;;;;;;;;;6181965;23;20016;-82
2022/02/05 03:32:11;;;;;;;4.05;1.25;;;;;;;;;;6172342;23;20024;-82
2022/02/05 03:34:37;;;;;;;3.78;1.75;;;;;;;;;;6182766;23;20028;-84
2022/02/05 03:37:03;;;;;;;9.75;2.05;;;;;;;;;;6187846;22;20016;-85
2022/02/05 03:39:29;;;;;;;4.40;1.33;;;;;;;;;;6186644;22;20027;-83
2022/02/05 03:41:55;;;;;;;7.68;1.98;;;;;;;;;;6211201;22;20073;-84
2022/02/05 03:44:21;;;;;;;20.13;2.50;;;;;;;;;;6185152;22;20456;-83
2022/02/05 03:46:49;;;;;;;6.68;1.88;;;;;;;;;;6186353;22;20095;-83
2022/02/05 03:49:17;;;;;;;8.90;2.90;;;;;;;;;;6210766;22;20119;-83
2022/02/05 03:51:44;;;;;;;7.78;1.83;;;;;;;;;;6186724;22;20511;-83
2022/02/05 03:54:09;;;;;;;6.07;1.55;;;;;;;;;;6212912;23;20016;-83
2022/02/05 03:56:35;;;;;;;5.80;1.90;;;;;;;;;;6212593;22;20087;-84
2022/02/05 03:59:01;;;;;;;6.25;2.00;;;;;;;;;;6187064;22;20020;-84
2022/02/05 04:01:27;;;;;;;4.57;2.08;;;;;;;;;;6187135;22;20051;-83
2022/02/05 04:03:52;;;;;;;7.43;1.90;;;;;;;;;;6187576;22;20021;-83
2022/02/05 04:06:18;;;;;;;9.40;2.20;;;;;;;;;;6187837;22;20028;-83
2022/02/05 04:08:45;;;;;;;4.93;2.58;;;;;;;;;;6212451;22;20020;-83
2022/02/05 04:11:35;;;;;;;6.90;2.63;;;;;;;;;;6212872;23;20530;-84
2022/02/05 04:16:47;;;;;;;8.68;2.45;;;;;;;;;;6216478;22;20217;-83
2022/02/05 04:19:13;;;;;;;9.23;2.17;;;;;;;;;;6173383;22;20024;-83
2022/02/05 04:21:39;;;;;;;6.72;1.80;;;;;;;;;;6186672;22;20018;-83
2022/02/05 04:24:05;;;;;;;7.40;1.85;;;;;;;;;;6188201;22;20054;-84
2022/02/05 04:26:30;;;;;;;14.00;2.20;;;;;;;;;;6187561;22;20020;-83
2022/02/05 04:28:57;;;;;;;7.57;2.40;;;;;;;;;;6187606;23;20020;-83
2022/02/05 04:31:23;;;;;;;9.95;1.98;;;;;;;;;;6187142;23;20091;-84
2022/02/05 04:33:49;;;;;;;7.40;1.90;;;;;;;;;;6187434;22;20031;-83
2022/02/05 04:36:17;;;;;;;5.53;1.98;;;;;;;;;;6187660;22;20020;-83
2022/02/05 04:38:46;;;;;;;5.82;2.28;;;;;;;;;;6187471;22;20120;-84
2022/02/05 04:41:20;;;;;;;8.38;3.25;;;;;;;;;;6188192;22;20358;-83
2022/02/05 04:44:04;;;;;;;11.40;2.63;;;;;;;;;;6213071;22;20043;-83
2022/02/05 04:47:10;;;;;;;6.50;1.92;;;;;;;;;;6215475;22;20317;-83
2022/02/05 04:50:00;;;;;;;9.68;2.55;;;;;;;;;;6219932;22;20028;-83
2022/02/05 04:55:08;;;;;;;13.23;2.83;;;;;;;;;;6212883;22;20016;-83
2022/02/05 04:58:03;;;;;;;13.27;3.67;;;;;;;;;;6191492;22;20483;-83
2022/02/05 05:00:51;;;;;;;8.77;3.03;;;;;;;;;;6215784;22;20036;-83
2022/02/05 05:03:42;;;;;;;9.38;2.97;;;;;;;;;;6191812;22;20292;-83
2022/02/05 05:09:12;;;;;;;5.05;2.35;;;;;;;;;;6216198;22;20027;-83
2022/02/05 05:20:04;;;;;;;10.07;2.55;;;;;;;;;;6215613;22;20027;-83
2022/02/05 05:22:29;;;;;;;7.43;3.28;;;;;;;;;;6211236;22;20095;-83
2022/02/05 05:24:55;;;;;;;6.43;2.83;;;;;;;;;;6236950;22;20031;-83
2022/02/05 05:27:21;;;;;;;8.85;3.85;;;;;;;;;;6187457;22;20024;-83
2022/02/05 05:29:47;;;;;;;11.05;3.53;;;;;;;;;;6212851;22;20087;-83
2022/02/05 05:32:12;;;;;;;6.28;3.05;;;;;;;;;;6211353;22;20024;-83
2022/02/05 05:34:38;;;;;;;8.27;3.33;;;;;;;;;;6210341;22;20016;-84
2022/02/05 05:37:04;;;;;;;9.10;3.20;;;;;;;;;;6211913;22;20016;-83
2022/02/05 05:39:33;;;;;;;7.05;3.60;;;;;;;;;;6186573;22;20016;-83
2022/02/05 05:41:59;;;;;;;6.45;3.22;;;;;;;;;;6187924;23;20019;-84
2022/02/05 05:45:33;;;;;;;12.73;4.35;;;;;;;;;;6211443;23;20098;-83
2022/02/05 05:47:35;;;;;;;6.20;3.80;;;;;;;;;;6198130;22;20032;-83
2022/02/05 05:50:09;;;;;;;12.35;5.05;;;;;;;;;;6189443;22;20493;-83
2022/02/05 05:52:36;;;;;;;8.30;3.95;;;;;;;;;;6188659;22;20019;-83
2022/02/05 05:55:03;;;;;;;9.27;4.40;;;;;;;;;;6211738;22;20026;-83
2022/02/05 05:57:29;;;;;;;8.27;3.55;;;;;;;;;;6186262;23;20126;-83
2022/02/05 05:59:55;;;;;;;5.72;3.63;;;;;;;;;;6212015;23;20109;-83
2022/02/05 06:02:21;;;;;;;8.80;3.95;;;;;;;;;;6211772;22;20028;-83
2022/02/05 06:04:46;;;;;;;7.20;3.50;;;;;;;;;;6186016;22;20070;-83
2022/02/05 06:07:12;;;;;;;8.30;4.30;;;;;;;;;;6186329;22;20028;-83
2022/02/05 06:09:42;;;;;;;10.75;3.60;;;;;;;;;;6186605;22;20032;-84
2022/02/05 06:12:09;;;;;;;7.60;3.70;;;;;;;;;;6211550;22;20016;-83
2022/02/05 06:14:35;;;;;;;6.82;3.60;;;;;;;;;;6187022;22;20027;-83
2022/02/05 06:17:07;;;;;;;6.93;2.97;;;;;;;;;;6186733;22;20020;-83
2022/02/05 06:19:32;;;;;;;6.63;3.00;;;;;;;;;;6188694;22;20077;-83
2022/02/05 06:21:58;;;;;;;5.95;3.17;;;;;;;;;;6186406;23;20024;-83
2022/02/05 06:24:24;;;;;;;4.22;2.88;;;;;;;;;;6186063;23;20020;-83
2022/02/05 06:26:49;;;;;;;7.03;3.20;;;;;;;;;;6185898;22;20024;-83
2022/02/05 06:29:15;;;;;;;11.48;3.05;;;;;;;;;;6187433;22;20082;-83
2022/02/05 06:31:41;;;;;;;5.82;2.55;;;;;;;;;;6186956;22;20028;-83
2022/02/05 06:34:07;;;;;;;6.65;2.50;;;;;;;;;;6186440;22;20048;-83
2022/02/05 06:36:32;;;;;;;7.55;2.53;;;;;;;;;;6186920;22;20020;-83
2022/02/05 06:38:58;;;;;;;7.85;3.00;;;;;;;;;;6185596;23;20099;-83
2022/02/05 06:41:24;;;;;;;10.48;3.53;;;;;;;;;;6186268;23;20016;-83
2022/02/05 06:43:49;;;;;;;9.57;3.13;;;;;;;;;;6185961;22;20028;-84
2022/02/05 06:46:15;;;;;;;5.43;2.55;;;;;;;;;;6211993;22;20335;-84
2022/02/05 06:48:41;;;;;;;7.63;3.20;;;;;;;;;;6185614;22;20020;-83
2022/02/05 06:51:07;;;;;;;5.15;3.22;;;;;;;;;;6185526;22;20461;-84
2022/02/05 06:53:32;;;;;;;9.68;3.97;;;;;;;;;;6186453;22;20040;-83
2022/02/05 06:55:58;;;;;;;8.90;3.47;;;;;;;;;;6236043;22;20066;-83
2022/02/05 06:58:24;;;;;;;6.22;3.40;;;;;;;;;;6185222;23;20073;-83
2022/02/05 07:00:49;;;;;;;4.68;4.15;;;;;;;;;;6185904;22;20024;-83
2022/02/05 07:03:17;;;;;;;8.40;3.90;;;;;;;;;;6212155;22;20028;-83
2022/02/05 07:05:44;;;;;;;6.75;3.33;;;;;;;;;;6187106;22;20040;-83
2022/02/05 07:08:09;;;;;;;8.38;3.60;;;;;;;;;;6211406;22;20047;-83
2022/02/05 07:10:35;;;;;;;9.68;4.13;;;;;;;;;;6185238;22;20020;-83
2022/02/05 07:13:17;;;;;;;9.55;4.10;;;;;;;;;;6185832;22;20024;-83
2022/02/05 07:16:09;;;;;;;9.43;4.75;;;;;;;;;;6190668;22;20058;-84
2022/02/05 07:18:48;;;;;;;10.82;5.68;;;;;;;;;;6193106;22;20076;-83
2022/02/05 07:21:18;;;;;;;11.00;5.60;;;;;;;;;;6190553;22;20511;-83
2022/02/05 07:24:09;;;;;;;10.88;4.97;;;;;;;;;;6188116;22;20027;-83
2022/02/05 07:29:20;;;;;;;8.15;4.25;;;;;;;;;;6215611;22;20026;-83
2022/02/05 07:31:51;;;;;;;11.05;4.47;;;;;;;;;;6187213;22;20016;-84
2022/02/05 07:34:19;;;;;;;10.63;5.68;;;;;;;;;;6188490;22;20028;-83
2022/02/05 07:36:46;;;;;;;10.55;4.85;;;;;;;;;;6187590;22;20891;-83
2022/02/05 07:39:12;;;;;;;8.23;4.55;;;;;;;;;;6188186;22;20054;-83
2022/02/05 07:41:39;;;;;;;8.20;4.43;;;;;;;;;;6188428;22;20087;-83
2022/02/05 07:44:08;;;;;;;9.80;4.50;;;;;;;;;;6185872;22;20670;-83
2022/02/05 07:46:34;;;;;;;12.55;4.35;;;;;;;;;;6187429;22;20081;-83
2022/02/05 07:49:00;;;;;;;11.13;4.43;;;;;;;;;;6186558;22;20449;-83
2022/02/05 07:51:26;;;;;;;14.05;4.20;;;;;;;;;;6188784;23;20023;-83
2022/02/05 07:53:52;;;;;;;11.68;4.35;;;;;;;;;;6187935;22;20020;-83
2022/02/05 07:56:17;;;;;;;8.75;5.20;;;;;;;;;;6189236;22;20038;-83
2022/02/05 07:58:43;;;;;;;9.25;4.65;;;;;;;;;;6187994;22;20016;-83
2022/02/05 08:01:09;;;;;;;10.30;4.60;;;;;;;;;;6188138;22;20028;-83
2022/02/05 08:03:34;;;;;;;11.60;5.18;;;;;;;;;;6188103;22;20362;-84
2022/02/05 08:06:03;;;;;;;8.55;4.03;;;;;;;;;;6185912;22;20024;-83
2022/02/05 08:08:32;;;;;;;7.72;3.88;;;;;;;;;;6187669;23;20300;-83
2022/02/05 08:11:05;;;;;;;8.45;3.83;;;;;;;;;;6215222;23;20028;-83
2022/02/05 08:13:33;;;;;;;11.07;4.13;;;;;;;;;;6189050;22;20067;-83
2022/02/05 08:16:12;;;;;;;6.38;3.03;;;;;;;;;;6212672;23;20023;-83
2022/02/05 08:18:39;;;;;;;9.27;4.63;;;;;;;;;;6188470;22;20087;-83
2022/02/05 08:21:05;;;;;;;10.80;3.22;;;;;;;;;;6213179;22;20035;-83
2022/02/05 08:23:31;;;;;;;6.50;2.20;;;;;;;;;;6211965;22;20016;-83
2022/02/05 08:25:57;;;;;;;7.53;2.13;;;;;;;;;;6187220;23;20070;-83
2022/02/05 08:28:25;;;;;;;9.73;2.30;;;;;;;;;;6186537;22;20493;-83
2022/02/05 08:30:52;;;;;;;8.52;2.63;;;;;;;;;;6188397;22;20027;-83
2022/02/05 08:33:19;;;;;;;6.05;2.13;;;;;;;;;;6188501;22;20035;-83
2022/02/05 08:35:45;;;;;;;14.00;2.03;;;;;;;;;;6241113;22;20044;-83
2022/02/05 08:38:10;;;;;;;5.40;1.75;;;;;;;;;;6187545;22;20055;-83
2022/02/05 08:40:36;;;;;;;5.60;1.70;;;;;;;;;;6212378;22;20016;-83
2022/02/05 08:43:02;;;;;;;10.10;1.75;;;;;;;;;;6187353;22;20020;-86
2022/02/05 08:45:27;;;;;;;9.73;1.90;;;;;;;;;;6212914;23;20110;-83
2022/02/05 08:47:53;;;;;;;6.32;1.48;;;;;;;;;;6187958;22;20469;-83
2022/02/05 08:50:19;;;;;;;4.80;2.03;;;;;;;;;;6186606;22;20081;-83
2022/02/05 08:52:45;;;;;;;5.15;1.83;;;;;;;;;;6188242;22;20327;-83
2022/02/05 08:55:11;;;;;;;6.38;1.38;;;;;;;;;;6189654;22;20024;-83
2022/02/05 08:57:39;;;;;;;2.08;0.93;;;;;;;;;;6213143;22;20070;-83
2022/02/05 09:00:12;;;;;;;1.92;1.00;;;;;;;;;;6214749;22;20031;-83
2022/02/05 09:02:53;;;;;;;2.47;0.93;;;;;;;;;;6189172;22;20401;-83
2022/02/05 09:07:58;;;;;;;1.98;1.15;;;;;;;;;;6216592;22;20012;-84
2022/02/05 09:10:36;;;;;;;3.65;1.25;;;;;;;;;;6189326;22;20108;-83
2022/02/05 09:13:11;;;;;;;5.10;1.73;;;;;;;;;;6197258;22;20409;-83
2022/02/05 09:15:37;;;;;;;6.55;1.33;;;;;;;;;;6191008;22;20081;-84
2022/02/05 09:18:03;;;;;;;5.80;1.38;;;;;;;;;;6188431;22;20016;-84
2022/02/05 09:20:29;;;;;;;7.15;1.27;;;;;;;;;;6188385;23;20436;-84
2022/02/05 09:22:55;;;;;;;6.63;1.30;;;;;;;;;;6187286;22;20020;-84
2022/02/05 09:25:22;;;;;;;2.90;1.17;;;;;;;;;;6188125;22;20020;-84
2022/02/05 09:27:50;;;;;;;6.43;1.30;;;;;;;;;;6211981;22;20078;-84
2022/02/05 09:30:17;;;;;;;3.40;1.30;;;;;;;;;;6185870;22;20028;-84
2022/02/05 09:32:44;;;;;;;4.35;1.38;;;;;;;;;;6186240;22;20019;-84
2022/02/05 09:35:11;;;;;;;1.83;1.58;;;;;;;;;;6185825;22;20050;-84
2022/02/05 09:37:37;;;;;;;6.25;2.03;;;;;;;;;;6186608;22;20565;-85
2022/02/05 09:40:05;;;;;;;5.28;2.00;;;;;;;;;;6187174;22;20317;-84
2022/02/05 09:42:31;;;;;;;4.28;1.75;;;;;;;;;;6213305;23;20030;-85
2022/02/05 09:45:01;;;;;;;3.25;1.50;;;;;;;;;;6184135;23;20035;-84
2022/02/05 09:47:27;;;;;;;3.92;1.20;;;;;;;;;;6188412;23;20024;-85
2022/02/05 09:49:53;;;;;;;6.35;1.15;;;;;;;;;;6185892;22;20472;-84
2022/02/05 09:52:26;;;;;;;6.30;1.45;;;;;;;;;;6211162;22;20028;-84
2022/02/05 09:54:52;;;;;;;4.20;1.65;;;;;;;;;;6213907;22;20027;-84
2022/02/05 09:57:19;;;;;;;9.15;3.17;;;;;;;;;;6187463;22;20039;-84
2022/02/05 09:59:52;;;;;;;5.57;1.95;;;;;;;;;;6212672;22;20051;-85
2022/02/05 10:02:21;;;;;;;8.40;1.98;;;;;;;;;;6189242;22;20122;-84
2022/02/05 10:04:53;;;;;;;7.35;2.20;;;;;;;;;;6213511;22;20027;-85
2022/02/05 10:07:19;;;;;;;4.93;1.20;;;;;;;;;;6213377;22;20465;-84
2022/02/05 10:10:17;;;;;;;5.15;1.73;;;;;;;;;;6189733;22;20066;-85
2022/02/05 10:12:42;;;;;;;9.05;2.10;;;;;;;;;;6164180;22;20119;-84
2022/02/05 10:15:10;;;;;;;9.52;2.58;;;;;;;;;;6188680;22;20446;-84
2022/02/05 10:17:42;;;;;;;7.55;1.50;;;;;;;;;;6189101;22;20020;-85
2022/02/05 10:20:08;;;;;;;4.78;2.03;;;;;;;;;;6187263;22;20020;-85
2022/02/05 10:22:37;;;;;;;7.50;1.95;;;;;;;;;;6187804;22;20103;-84
2022/02/05 10:25:13;;;;;;;7.80;1.58;;;;;;;;;;6188009;22;20023;-85
2022/02/05 10:27:42;;;;;;;7.70;1.63;;;;;;;;;;6186897;22;20087;-85
2022/02/05 10:30:22;;;;;;;5.00;1.17;;;;;;;;;;6188378;22;20020;-84
2022/02/05 10:32:58;;;;;;;7.40;1.58;;;;;;;;;;6191605;22;20080;-84
2022/02/05 10:35:32;;;;;;;10.18;1.85;;;;;;;;;;6188082;22;20024;-85
2022/02/05 10:38:14;;;;;;;9.88;1.83;;;;;;;;;;6188419;23;20050;-85
2022/02/05 10:43:07;;;;;;;2.72;1.20;;;;;;;;;;6211426;22;20024;-84
2022/02/05 10:45:47;;;;;;;4.65;1.40;;;;;;;;;;6176498;22;20080;-84
2022/02/05 10:48:21;;;;;;;5.32;1.63;;;;;;;;;;6193935;22;20030;-85
2022/02/05 10:50:49;;;;;;;7.10;2.13;;;;;;;;;;6194828;22;20047;-85
2022/02/05 10:53:24;;;;;;;6.15;1.77;;;;;;;;;;6196002;22;20046;-84
2022/02/05 10:58:46;;;;;;;6.57;1.60;;;;;;;;;;6226045;22;20218;-85
2022/02/05 11:07:00;;;;;;;6.57;2.03;;;;;;;;;;6245992;22;20094;-84
2022/02/05 11:09:26;;;;;;;10.68;2.50;;;;;;;;;;6187424;23;20104;-85
2022/02/05 11:20:10;;;;;;;8.82;2.40;;;;;;;;;;6214277;22;20024;-84
2022/02/05 11:22:59;;;;;;;12.50;2.00;;;;;;;;;;6211597;22;20056;-85
2022/02/05 11:25:30;;;;;;;6.60;1.90;;;;;;;;;;6236745;22;20185;-84
2022/02/05 11:27:56;;;;;;;6.65;2.78;;;;;;;;;;6188637;23;20016;-84
2022/02/05 11:30:31;;;;;;;8.30;2.20;;;;;;;;;;6189390;22;20193;-84
2022/02/05 11:33:03;;;;;;;8.02;2.13;;;;;;;;;;6216017;23;20032;-84
2022/02/05 11:35:44;;;;;;;8.35;1.92;;;;;;;;;;6194749;23;20023;-84
2022/02/05 11:38:10;;;;;;;10.23;2.13;;;;;;;;;;6192657;22;20034;-85
2022/02/05 11:40:41;;;;;;;11.23;2.30;;;;;;;;;;6218049;22;20024;-85
2022/02/05 11:43:29;;;;;;;12.90;2.65;;;;;;;;;;6214670;22;20461;-85
2022/02/05 11:46:04;;;;;;;7.78;2.33;;;;;;;;;;6187532;22;20047;-85
2022/02/05 11:48:59;;;;;;;10.13;2.25;;;;;;;;;;6212078;23;20084;-85
2022/02/05 11:51:30;;;;;;;9.48;2.13;;;;;;;;;;6211698;22;20024;-85
2022/02/05 11:53:56;;;;;;;9.63;2.05;;;;;;;;;;6186990;23;20083;-85
2022/02/05 11:56:34;;;;;;;10.52;1.98;;;;;;;;;;6212101;22;20310;-85
2022/02/05 11:59:01;;;;;;;11.70;2.15;;;;;;;;;;6212864;23;20095;-85
2022/02/05 12:01:37;;;;;;;10.93;2.22;;;;;;;;;;6187891;23;20016;-85
2022/02/05 12:04:16;;;;;;;12.48;2.35;;;;;;;;;;6186755;22;20038;-85
2022/02/05 12:06:58;;;;;;;10.85;2.40;;;;;;;;;;6188816;22;20016;-86
2022/02/05 12:09:37;;;;;;;8.32;2.10;;;;;;;;;;6188197;22;20024;-85
2022/02/05 12:12:35;;;;;;;7.13;2.63;;;;;;;;;;6210336;22;20016;-85
2022/02/05 12:15:14;;;;;;;10.75;2.10;;;;;;;;;;6213778;23;20094;-86
2022/02/05 12:20:33;;;;;;;8.60;2.42;;;;;;;;;;6240875;22;20070;-85
2022/02/05 12:25:30;;;;;;;10.73;1.88;;;;;;;;;;6242315;22;19919;-85
2022/02/05 12:27:56;;;;;;;9.25;1.52;;;;;;;;;;6214208;23;20416;-85
2022/02/05 12:30:29;;;;;;;8.52;2.53;;;;;;;;;;6213428;22;20500;-85
2022/02/05 12:32:55;;;;;;;9.95;2.72;;;;;;;;;;6213318;22;20020;-85
2022/02/05 12:35:21;;;;;;;7.70;1.52;;;;;;;;;;6212216;22;20030;-85
2022/02/05 12:37:47;;;;;;;12.82;2.25;;;;;;;;;;6186202;22;20042;-85
2022/02/05 12:40:13;;;;;;;9.60;2.13;;;;;;;;;;6187741;22;20028;-85
2022/02/05 12:42:40;;;;;;;6.15;2.22;;;;;;;;;;6187333;22;20099;-85
2022/02/05 12:45:08;;;;;;;11.38;1.80;;;;;;;;;;6188754;22;20024;-85
2022/02/05 12:47:39;;;;;;;7.70;1.92;;;;;;;;;;6212670;22;20035;-85
2022/02/05 12:50:09;;;;;;;10.18;2.50;;;;;;;;;;6189673;22;20481;-85
2022/02/05 12:52:36;;;;;;;13.95;1.95;;;;;;;;;;6191301;22;20016;-85
2022/02/05 12:55:03;;;;;;;7.97;1.48;;;;;;;;;;6212889;22;20054;-85
2022/02/05 12:57:30;;;;;;;11.13;2.15;;;;;;;;;;6190767;23;20357;-85
2022/02/05 12:59:56;;;;;;;8.20;1.95;;;;;;;;;;6213509;22;20036;-85
2022/02/05 13:02:23;;;;;;;9.68;1.35;;;;;;;;;;6187942;22;20095;-85
2022/02/05 13:04:51;;;;;;;7.32;1.63;;;;;;;;;;6214802;22;20036;-85
2022/02/05 13:07:21;;;;;;;5.72;1.48;;;;;;;;;;6189434;22;20016;-85
2022/02/05 13:09:58;;;;;;;7.03;1.27;;;;;;;;;;6189607;22;20026;-85
2022/02/05 13:12:29;;;;;;;7.38;1.42;;;;;;;;;;6188992;22;20276;-85
2022/02/05 13:15:01;;;;;;;7.93;1.50;;;;;;;;;;6213881;22;20013;-85
2022/02/05 13:18:10;;;;;;;8.18;1.85;;;;;;;;;;6191280;23;20458;-85
2022/02/05 13:34:19;;;;;;;7.07;1.52;;;;;;;;;;6217698;22;20299;-85
2022/02/05 13:36:55;;;;;;;6.15;1.52;;;;;;;;;;6188910;22;20086;-85
2022/02/05 13:39:48;;;;;;;6.93;2.22;;;;;;;;;;6188321;22;20024;-85
2022/02/05 13:42:20;;;;;;;10.32;2.30;;;;;;;;;;6191370;22;20023;-85
2022/02/05 13:47:29;;;;;;;6.80;1.20;;;;;;;;;;6212699;22;20016;-85
2022/02/05 13:50:09;;;;;;;5.90;1.50;;;;;;;;;;6186639;22;20021;-85
2022/02/05 13:52:39;;;;;;;10.13;2.10;;;;;;;;;;6212583;22;20235;-85
2022/02/05 13:55:09;;;;;;;6.60;1.20;;;;;;;;;;6212030;22;20051;-85
2022/02/05 13:57:35;;;;;;;5.32;1.17;;;;;;;;;;6186525;22;20087;-85
2022/02/05 14:00:00;;;;;;;6.15;1.20;;;;;;;;;;6211920;23;20020;-85
2022/02/05 14:02:26;;;;;;;9.48;1.98;;;;;;;;;;6186704;23;20024;-85
2022/02/05 14:05:15;;;;;;;3.75;1.40;;;;;;;;;;6185332;22;20308;-85
2022/02/05 14:07:45;;;;;;;5.97;1.27;;;;;;;;;;6211466;22;20020;-85
2022/02/05 14:10:13;;;;;;;7.25;1.33;;;;;;;;;;6185432;22;20408;-85
2022/02/05 14:12:55;;;;;;;4.82;0.90;;;;;;;;;;6187059;22;20016;-85
2022/02/05 14:15:23;;;;;;;6.10;1.67;;;;;;;;;;6213702;22;20078;-85
2022/02/05 14:18:15;;;;;;;3.80;1.52;;;;;;;;;;6188809;22;20030;-85
2022/02/05 14:20:54;;;;;;;5.32;1.70;;;;;;;;;;6212275;22;20020;-85
2022/02/05 14:23:22;;;;;;;10.88;2.25;;;;;;;;;;6185399;22;20030;-85
2022/02/05 14:25:53;;;;;;;6.35;1.52;;;;;;;;;;6186243;22;20342;-85
2022/02/05 14:28:30;;;;;;;6.85;1.52;;;;;;;;;;6188439;22;20030;-85
2022/02/05 14:31:05;;;;;;;7.65;1.35;;;;;;;;;;6188700;23;20016;-85
2022/02/05 14:34:06;;;;;;;5.90;1.70;;;;;;;;;;6195659;23;20016;-84
2022/02/05 14:41:51;;;;;;;7.78;1.98;;;;;;;;;;6217773;22;20401;-85
2022/02/05 14:44:17;;;;;;;7.82;1.48;;;;;;;;;;6186246;22;20126;-85
2022/02/05 14:46:43;;;;;;;7.10;1.63;;;;;;;;;;6187883;22;20020;-85
2022/02/05 14:49:09;;;;;;;7.28;1.60;;;;;;;;;;6211558;22;20024;-85
2022/02/05 14:51:35;;;;;;;6.22;1.48;;;;;;;;;;6186181;22;20020;-85
2022/02/05 14:54:01;;;;;;;7.13;2.00;;;;;;;;;;6186852;23;20036;-85
2022/02/05 14:56:27;;;;;;;9.02;1.45;;;;;;;;;;6186068;23;20020;-85
2022/02/05 14:58:53;;;;;;;11.13;1.60;;;;;;;;;;6186754;22;20012;-85
2022/02/05 15:01:21;;;;;;;8.32;1.77;;;;;;;;;;6240426;22;20652;-85
2022/02/05 15:03:50;;;;;;;7.03;1.55;;;;;;;;;;6191978;22;20373;-85
2022/02/05 15:06:21;;;;;;;8.18;2.08;;;;;;;;;;6185075;22;20019;-85
2022/02/05 15:08:48;;;;;;;7.32;1.73;;;;;;;;;;6185064;22;20032;-85
2022/02/05 15:11:15;;;;;;;4.63;1.30;;;;;;;;;;6209806;22;20318;-85
2022/02/05 15:13:41;;;;;;;6.70;2.05;;;;;;;;;;6209196;22;20020;-85
2022/02/05 15:16:10;;;;;;;6.65;1.70;;;;;;;;;;6185229;22;20046;-85
2022/02/05 15:18:39;;;;;;;9.93;1.75;;;;;;;;;;6214003;22;20031;-85
2022/02/05 15:21:05;;;;;;;8.23;1.60;;;;;;;;;;6239368;22;20024;-85
2022/02/05 15:23:30;;;;;;;9.10;1.45;;;;;;;;;;6236933;22;20077;-84
2022/02/05 15:26:00;;;;;;;7.25;1.15;;;;;;;;;;6186836;23;20626;-85
2022/02/05 15:28:26;;;;;;;6.57;1.60;;;;;;;;;;6188628;23;20024;-85
2022/02/05 15:30:52;;;;;;;7.47;1.60;;;;;;;;;;6186588;22;20268;-85
2022/02/05 15:33:20;;;;;;;7.05;1.83;;;;;;;;;;6186753;22;20515;-85
2022/02/05 15:35:46;;;;;;;11.27;1.67;;;;;;;;;;6211458;22;20170;-84
2022/02/05 15:38:17;;;;;;;7.38;1.48;;;;;;;;;;6209217;22;20357;-84
2022/02/05 15:43:52;;;;;;;3.38;1.17;;;;;;;;;;6215757;22;20084;-84
2022/02/05 15:46:18;;;;;;;4.82;2.08;;;;;;;;;;6238382;22;20459;-85
2022/02/05 15:48:44;;;;;;;5.57;1.45;;;;;;;;;;6186593;22;20506;-85
2022/02/05 15:51:10;;;;;;;7.95;1.67;;;;;;;;;;6211858;22;20103;-85
2022/02/05 15:53:43;;;;;;;8.88;2.95;;;;;;;;;;6188926;22;20091;-85
2022/02/05 15:56:21;;;;;;;10.15;2.15;;;;;;;;;;6214316;22;20046;-85
2022/02/05 15:58:48;;;;;;;9.07;2.08;;;;;;;;;;6190955;22;20540;-84
2022/02/05 16:01:15;;;;;;;7.55;2.00;;;;;;;;;;6187756;22;20024;-85
2022/02/05 16:03:42;;;;;;;4.38;1.42;;;;;;;;;;6214271;22;20094;-85
2022/02/05 16:06:08;;;;;;;11.25;2.13;;;;;;;;;;6188167;22;20027;-85
2022/02/05 16:08:34;;;;;;;3.33;1.55;;;;;;;;;;6187797;22;20043;-84
2022/02/05 16:10:59;;;;;;;7.80;1.83;;;;;;;;;;6187544;23;20327;-85
2022/02/05 16:13:25;;;;;;;5.93;1.73;;;;;;;;;;6213521;22;20442;-85
2022/02/05 16:15:51;;;;;;;7.50;1.80;;;;;;;;;;6188982;22;20016;-85
2022/02/05 16:18:16;;;;;;;10.68;1.55;;;;;;;;;;6212221;22;20117;-85
2022/02/05 16:20:42;;;;;;;4.65;1.30;;;;;;;;;;6186615;22;20023;-84
2022/02/05 16:23:08;;;;;;;4.50;1.75;;;;;;;;;;6212702;22;20058;-85
2022/02/05 16:25:34;;;;;;;5.85;1.65;;;;;;;;;;6188652;22;20043;-85
2022/02/05 16:28:00;;;;;;;8.20;2.05;;;;;;;;;;6186984;23;20040;-85
2022/02/05 16:30:27;;;;;;;8.38;1.75;;;;;;;;;;6187756;22;20078;-85
2022/02/05 16:32:59;;;;;;;7.65;1.80;;;;;;;;;;6188433;22;20551;-85
2022/02/05 16:35:32;;;;;;;5.88;2.45;;;;;;;;;;6188923;22;20068;-85
2022/02/05 16:37:58;;;;;;;12.93;2.97;;;;;;;;;;6189005;23;20055;-85
2022/02/05 16:40:28;;;;;;;6.85;2.60;;;;;;;;;;6185989;22;20016;-85
2022/02/05 16:42:53;;;;;;;7.32;2.40;;;;;;;;;;6187005;22;20329;-84
2022/02/05 16:45:22;;;;;;;8.25;2.83;;;;;;;;;;6186458;22;20072;-85
2022/02/05 16:47:48;;;;;;;7.70;2.75;;;;;;;;;;6187891;22;20702;-85
2022/02/05 16:50:16;;;;;;;5.30;2.17;;;;;;;;;;6186406;22;20082;-85
2022/02/05 16:52:44;;;;;;;3.42;2.05;;;;;;;;;;6212648;22;20027;-85
2022/02/05 16:55:10;;;;;;;5.15;2.00;;;;;;;;;;6188561;22;20020;-85
2022/02/05 16:57:36;;;;;;;5.22;1.98;;;;;;;;;;6186030;22;20072;-84
2022/02/05 17:00:02;;;;;;;7.28;2.45;;;;;;;;;;6211850;23;20050;-85
2022/02/05 17:02:28;;;;;;;8.48;3.42;;;;;;;;;;6184852;23;20019;-85
2022/02/05 17:04:53;;;;;;;6.07;2.22;;;;;;;;;;6187763;22;20409;-85
2022/02/05 17:07:19;;;;;;;6.55;2.05;;;;;;;;;;6187190;22;20025;-85
2022/02/05 17:09:51;;;;;;;5.85;1.88;;;;;;;;;;6187281;22;20016;-85
2022/02/05 17:12:17;;;;;;;4.40;2.42;;;;;;;;;;6188157;22;20067;-84